Time;durP1;ratioP1;P1;durP2;ratioP2;P2;SDS_P1;SDS_P2;PMS_P1;PMS_P2;Temp;Humidity;BMP_temperature;BMP_pressure;BME280_temperature;BME280_humidity;BME280_pressure;Samples;Min_cycle;Max_cycle;Signal;HPM_P1;HPM_P2
2022/12/14 00:01:52;;;;;;;46.40;23.47;;;-3.00;99.90;;;;;;5075922;28;20481;-57
2022/12/14 00:04:20;;;;;;;46.03;24.50;;;-3.10;99.90;;;;;;5076366;28;20471;-57
2022/12/14 00:06:50;;;;;;;49.80;25.77;;;-3.00;99.90;;;;;;5076147;28;20465;-57
2022/12/14 00:09:18;;;;;;;47.87;24.70;;;-3.10;99.90;;;;;;5075875;28;20468;-55
2022/12/14 00:11:46;;;;;;;45.03;24.20;;;-3.30;99.90;;;;;;5076032;28;21030;-57
2022/12/14 00:14:14;;;;;;;42.70;23.70;;;-3.30;99.90;;;;;;5078830;28;21025;-57
2022/12/14 00:16:42;;;;;;;39.47;23.27;;;-3.30;99.90;;;;;;5076010;28;20976;-57
2022/12/14 00:19:11;;;;;;;44.60;23.27;;;-3.30;99.90;;;;;;5076116;28;20833;-56
2022/12/14 00:21:42;;;;;;;40.33;21.10;;;-3.40;99.90;;;;;;5075753;28;20476;-56
2022/12/14 00:24:11;;;;;;;38.37;21.00;;;-3.40;99.90;;;;;;5076179;28;20475;-56
2022/12/14 00:26:41;;;;;;;37.83;21.53;;;-3.40;99.90;;;;;;5075384;28;20488;-56
2022/12/14 00:29:10;;;;;;;37.97;20.13;;;-3.40;99.90;;;;;;5075644;28;20457;-56
2022/12/14 00:31:39;;;;;;;30.93;17.53;;;-3.40;99.90;;;;;;5075113;28;20473;-56
2022/12/14 00:34:07;;;;;;;36.70;19.13;;;-3.40;99.90;;;;;;5075755;28;20862;-56
2022/12/14 00:36:36;;;;;;;36.43;21.00;;;-3.40;99.90;;;;;;5075757;28;20527;-56
2022/12/14 00:39:05;;;;;;;39.83;21.63;;;-3.50;99.90;;;;;;5075709;28;20523;-57
2022/12/14 00:41:34;;;;;;;38.27;20.70;;;-3.50;99.90;;;;;;5075416;28;20481;-56
2022/12/14 00:44:02;;;;;;;36.70;20.30;;;-3.50;99.90;;;;;;5078196;28;20465;-56
2022/12/14 00:46:30;;;;;;;43.70;20.87;;;-3.50;99.90;;;;;;5075022;28;20541;-56
2022/12/14 00:48:58;;;;;;;37.30;20.63;;;-3.50;99.90;;;;;;5075188;28;20469;-56
2022/12/14 00:51:26;;;;;;;31.20;17.27;;;-3.60;99.90;;;;;;5075141;28;20480;-56
2022/12/14 00:53:54;;;;;;;36.90;20.30;;;-3.50;99.90;;;;;;5075172;28;20485;-56
2022/12/14 00:56:22;;;;;;;36.57;20.07;;;-3.60;99.90;;;;;;5075198;28;20458;-56
2022/12/14 00:58:53;;;;;;;36.07;20.03;;;-3.60;99.90;;;;;;5075294;28;20469;-56
2022/12/14 01:01:21;;;;;;;37.87;20.80;;;-3.60;99.90;;;;;;5074940;28;20472;-56
2022/12/14 01:03:50;;;;;;;35.20;19.90;;;-3.50;99.90;;;;;;5074638;28;20476;-56
2022/12/14 01:06:21;;;;;;;35.17;18.23;;;-3.50;99.90;;;;;;5075115;28;20506;-56
2022/12/14 01:08:49;;;;;;;39.43;20.67;;;-3.50;99.90;;;;;;5074777;28;20462;-56
2022/12/14 01:11:17;;;;;;;37.20;19.53;;;-3.60;99.90;;;;;;5075172;28;20476;-55
2022/12/14 01:13:45;;;;;;;36.83;20.20;;;-3.50;99.90;;;;;;5077488;28;20465;-56
2022/12/14 01:16:17;;;;;;;39.17;19.93;;;-3.60;99.90;;;;;;5075135;28;20549;-56
2022/12/14 01:18:46;;;;;;;35.67;19.73;;;-3.60;99.90;;;;;;5074496;28;20469;-56
2022/12/14 01:21:16;;;;;;;38.73;19.37;;;-3.60;99.90;;;;;;5075095;28;20469;-56
2022/12/14 01:23:46;;;;;;;36.77;19.07;;;-3.70;99.90;;;;;;5074770;28;20452;-56
2022/12/14 01:26:16;;;;;;;32.53;19.13;;;-3.70;99.90;;;;;;5072557;28;20489;-56
2022/12/14 01:28:44;;;;;;;35.57;20.03;;;-3.70;99.90;;;;;;5073066;28;20484;-54
2022/12/14 01:31:14;;;;;;;39.00;19.60;;;-3.70;99.90;;;;;;5074377;28;20480;-56
2022/12/14 01:33:44;;;;;;;37.20;19.57;;;-3.70;99.90;;;;;;5074689;28;20469;-56
2022/12/14 01:36:14;;;;;;;33.83;18.67;;;-3.70;99.90;;;;;;5054514;28;20545;-56
2022/12/14 01:38:43;;;;;;;33.03;18.50;;;-3.80;99.90;;;;;;5066787;28;20466;-59
2022/12/14 01:41:20;;;;;;;33.23;18.40;;;-3.80;99.90;;;;;;5074871;28;20806;-59
2022/12/14 01:43:51;;;;;;;32.90;19.00;;;-3.80;99.90;;;;;;5076872;28;20479;-59
2022/12/14 01:46:26;;;;;;;34.93;19.80;;;-3.80;99.90;;;;;;5074493;28;20478;-59
2022/12/14 01:49:03;;;;;;;36.60;18.67;;;-3.80;99.90;;;;;;5074568;28;20860;-58
2022/12/14 01:51:33;;;;;;;36.13;18.57;;;-3.90;99.90;;;;;;5074202;28;21159;-56
2022/12/14 01:54:03;;;;;;;35.53;18.50;;;-3.90;99.90;;;;;;5074542;28;20480;-56
2022/12/14 01:56:34;;;;;;;35.47;18.40;;;-3.90;99.90;;;;;;5074001;28;20461;-58
2022/12/14 01:59:07;;;;;;;32.43;17.50;;;-3.90;99.90;;;;;;5073868;28;20460;-58
2022/12/14 02:01:36;;;;;;;30.33;17.27;;;-3.90;99.90;;;;;;5073413;28;20539;-58
2022/12/14 02:04:06;;;;;;;34.20;19.03;;;-3.90;99.90;;;;;;5073936;28;20469;-59
2022/12/14 02:06:37;;;;;;;32.00;17.97;;;-4.00;99.90;;;;;;5073692;28;20498;-58
2022/12/14 02:09:09;;;;;;;32.20;17.00;;;-4.00;99.90;;;;;;5073865;28;20473;-59
2022/12/14 02:11:46;;;;;;;32.43;17.93;;;-4.10;99.90;;;;;;5074114;28;20982;-58
2022/12/14 02:14:14;;;;;;;35.17;18.73;;;-4.10;99.90;;;;;;5075600;28;20464;-56
2022/12/14 02:16:42;;;;;;;31.90;17.53;;;-4.10;99.90;;;;;;5073906;28;20461;-56
2022/12/14 02:19:12;;;;;;;32.77;17.93;;;-4.10;99.90;;;;;;5073525;28;20484;-56
2022/12/14 02:22:06;;;;;;;35.73;18.33;;;-4.10;99.90;;;;;;5073857;28;20964;-56
2022/12/14 02:25:08;;;;;;;26.27;16.00;;;-4.10;99.90;;;;;;5073767;28;20461;-56
2022/12/14 02:28:03;;;;;;;31.43;17.23;;;-4.10;99.90;;;;;;5071053;28;20573;-59
2022/12/14 02:30:37;;;;;;;30.50;17.00;;;-4.20;99.90;;;;;;5068039;28;20515;-58
2022/12/14 02:33:33;;;;;;;34.93;17.70;;;-4.10;99.90;;;;;;5073629;28;20470;-58
2022/12/14 02:36:06;;;;;;;28.67;16.90;;;-4.20;99.90;;;;;;5073563;28;20497;-58
2022/12/14 02:38:47;;;;;;;31.77;17.73;;;-4.30;99.90;;;;;;5073216;28;20473;-58
2022/12/14 02:41:22;;;;;;;34.17;18.37;;;-4.20;99.90;;;;;;5073234;28;20465;-58
2022/12/14 02:44:01;;;;;;;28.20;17.10;;;-4.10;99.90;;;;;;5075884;28;20479;-58
2022/12/14 02:46:38;;;;;;;30.20;16.67;;;-4.20;99.90;;;;;;5073186;28;20980;-58
2022/12/14 02:49:14;;;;;;;27.90;17.07;;;-4.20;99.90;;;;;;5073002;28;20522;-58
2022/12/14 02:51:54;;;;;;;30.60;17.23;;;-4.30;99.90;;;;;;5072758;28;20469;-58
2022/12/14 02:54:29;;;;;;;30.20;17.00;;;-4.30;99.90;;;;;;5073024;28;20468;-56
2022/12/14 02:57:04;;;;;;;29.50;17.03;;;-4.30;99.90;;;;;;5073246;28;20797;-56
2022/12/14 02:59:33;;;;;;;32.10;16.33;;;-4.30;99.90;;;;;;5072374;28;20559;-55
2022/12/14 03:02:04;;;;;;;32.03;17.67;;;-4.30;99.90;;;;;;5072506;28;20880;-56
2022/12/14 03:04:44;;;;;;;31.00;17.97;;;-4.30;99.90;;;;;;5072255;28;20468;-55
2022/12/14 03:07:32;;;;;;;32.27;16.53;;;-4.40;99.90;;;;;;5072764;28;20493;-55
2022/12/14 03:10:05;;;;;;;32.37;17.03;;;-4.40;99.90;;;;;;5072621;28;20522;-55
2022/12/14 03:12:36;;;;;;;31.87;17.70;;;-4.40;99.90;;;;;;5072680;28;20473;-56
2022/12/14 03:15:08;;;;;;;31.27;16.63;;;-4.40;99.90;;;;;;5075142;28;20487;-56
2022/12/14 03:17:39;;;;;;;31.97;17.30;;;-4.40;99.90;;;;;;5072794;28;20982;-56
2022/12/14 03:20:12;;;;;;;33.47;17.93;;;-4.40;99.90;;;;;;5072361;28;20472;-56
2022/12/14 03:22:48;;;;;;;31.97;17.83;;;-4.40;99.90;;;;;;5072478;28;20462;-56
2022/12/14 03:25:21;;;;;;;31.53;18.00;;;-4.40;99.90;;;;;;5072355;28;20548;-56
2022/12/14 03:27:53;;;;;;;28.57;17.40;;;-4.40;99.90;;;;;;5071857;28;20979;-56
2022/12/14 03:30:21;;;;;;;35.40;18.10;;;-4.40;99.90;;;;;;5070864;28;20523;-56
2022/12/14 03:33:15;;;;;;;31.60;15.87;;;-4.40;99.90;;;;;;5072680;28;20468;-56
2022/12/14 03:35:48;;;;;;;31.47;16.80;;;-4.40;99.90;;;;;;5072425;28;20461;-56
2022/12/14 03:38:21;;;;;;;32.00;17.63;;;-4.40;99.90;;;;;;5072953;28;20457;-58
2022/12/14 03:40:55;;;;;;;32.53;16.20;;;-4.50;99.90;;;;;;5072483;28;20472;-58
2022/12/14 03:43:33;;;;;;;29.27;16.77;;;-4.50;99.90;;;;;;5072504;28;20562;-58
2022/12/14 03:46:08;;;;;;;29.10;16.53;;;-4.50;99.90;;;;;;5072165;28;20475;-58
2022/12/14 03:48:44;;;;;;;27.73;16.40;;;-4.50;99.90;;;;;;5072357;28;20457;-56
2022/12/14 03:51:20;;;;;;;29.57;16.73;;;-4.50;99.90;;;;;;5072739;28;20458;-55
2022/12/14 03:53:53;;;;;;;26.77;15.93;;;-4.50;99.90;;;;;;5072167;28;20487;-55
2022/12/14 03:56:28;;;;;;;29.80;16.10;;;-4.50;99.90;;;;;;5072320;28;20866;-55
2022/12/14 03:59:04;;;;;;;26.97;15.13;;;-4.50;99.90;;;;;;5072588;28;20472;-58
2022/12/14 04:01:40;;;;;;;29.57;17.67;;;-4.30;99.90;;;;;;5071732;28;20476;-58
2022/12/14 04:04:15;;;;;;;29.70;15.47;;;-4.40;99.90;;;;;;5072104;28;20465;-58
2022/12/14 04:06:48;;;;;;;30.67;17.13;;;-4.40;99.90;;;;;;5071724;28;20467;-58
2022/12/14 04:09:26;;;;;;;29.63;16.60;;;-4.40;99.90;;;;;;5071878;28;20480;-58
2022/12/14 04:20:29;;;;;;;28.70;16.30;;;-4.30;99.90;;;;;;5072339;28;20518;-58
2022/12/14 04:23:03;;;;;;;29.20;16.60;;;-4.40;99.90;;;;;;5072420;28;20967;-58
2022/12/14 04:31:14;;;;;;;31.77;20.58;;;-4.50;99.90;;;;;;5089901;28;20440;-58
2022/12/14 04:33:47;;;;;;;27.97;16.17;;;-4.50;99.90;;;;;;5090935;28;20692;-58
2022/12/14 04:36:23;;;;;;;27.33;16.93;;;-4.50;99.90;;;;;;5086578;28;20467;-58
2022/12/14 04:38:58;;;;;;;30.13;15.60;;;-4.60;99.90;;;;;;5089535;28;20499;-56
2022/12/14 04:41:31;;;;;;;26.90;15.53;;;-4.70;99.90;;;;;;5095310;28;20508;-55
2022/12/14 04:44:02;;;;;;;26.40;15.87;;;-4.60;99.90;;;;;;5082088;28;20863;-55
2022/12/14 04:46:34;;;;;;;27.17;15.13;;;-4.40;99.90;;;;;;5082258;28;20483;-55
2022/12/14 04:49:13;;;;;;;25.33;15.37;;;-4.30;99.90;;;;;;5079159;28;20479;-55
2022/12/14 04:51:49;;;;;;;30.60;16.60;;;-4.20;99.90;;;;;;5077922;28;20787;-56
2022/12/14 04:54:22;;;;;;;26.03;16.90;;;-4.30;99.90;;;;;;5078119;28;20525;-55
2022/12/14 04:56:55;;;;;;;31.90;18.07;;;-4.50;99.90;;;;;;5080562;28;20467;-57
2022/12/14 04:59:24;;;;;;;28.17;17.60;;;-4.50;99.90;;;;;;5080961;28;20456;-58
2022/12/14 05:02:00;;;;;;;28.83;16.50;;;-4.60;99.90;;;;;;5075593;28;20529;-57
2022/12/14 05:04:41;;;;;;;29.37;16.33;;;-4.60;99.90;;;;;;5075675;28;20843;-58
2022/12/14 05:07:18;;;;;;;23.97;14.90;;;-4.50;99.90;;;;;;5080607;28;20951;-58
2022/12/14 05:09:55;;;;;;;26.87;16.30;;;-4.50;99.90;;;;;;5079804;28;20468;-57
2022/12/14 05:12:28;;;;;;;25.80;15.67;;;-4.40;99.90;;;;;;5080871;28;20471;-58
2022/12/14 05:15:06;;;;;;;27.80;15.37;;;-4.50;99.90;;;;;;5082192;28;20479;-55
2022/12/14 05:17:36;;;;;;;27.97;16.00;;;-4.60;99.90;;;;;;5076018;28;20483;-55
2022/12/14 05:20:05;;;;;;;23.47;14.37;;;-4.70;99.90;;;;;;5076912;28;20465;-55
2022/12/14 05:22:37;;;;;;;22.63;13.73;;;-4.50;99.90;;;;;;5074118;28;20487;-56
2022/12/14 05:25:06;;;;;;;26.33;14.80;;;-4.40;99.90;;;;;;5076407;28;20470;-55
2022/12/14 05:27:34;;;;;;;21.23;13.30;;;-4.50;99.90;;;;;;5074571;28;20546;-55
2022/12/14 05:30:03;;;;;;;25.30;14.67;;;-4.40;99.90;;;;;;5074770;28;20472;-55
2022/12/14 05:32:31;;;;;;;26.10;14.17;;;-4.10;99.90;;;;;;5073904;28;21023;-55
2022/12/14 05:34:59;;;;;;;25.90;15.57;;;-4.40;99.90;;;;;;5074690;28;20477;-55
2022/12/14 05:37:27;;;;;;;22.43;11.93;;;-4.60;99.90;;;;;;5073957;28;20484;-58
2022/12/14 05:39:56;;;;;;;26.70;14.43;;;-4.50;99.90;;;;;;5074567;28;20465;-58
2022/12/14 05:42:24;;;;;;;29.37;15.57;;;-4.40;99.90;;;;;;5074553;28;20533;-58
2022/12/14 05:44:52;;;;;;;24.10;14.33;;;-4.10;99.90;;;;;;5074665;28;20952;-58
2022/12/14 05:47:21;;;;;;;24.30;14.37;;;-4.40;99.90;;;;;;5074268;28;20480;-57
2022/12/14 05:49:49;;;;;;;24.73;14.00;;;-4.50;99.90;;;;;;5072125;28;20477;-58
2022/12/14 05:52:18;;;;;;;21.20;13.07;;;-4.40;99.90;;;;;;5074947;28;20494;-58
2022/12/14 05:54:46;;;;;;;21.30;12.80;;;-4.50;99.90;;;;;;5083571;28;21500;-55
2022/12/14 05:57:15;;;;;;;24.63;13.60;;;-4.20;99.90;;;;;;5087665;28;20993;-58
2022/12/14 05:59:43;;;;;;;29.40;15.70;;;-4.20;99.90;;;;;;5082063;28;20794;-58
2022/12/14 06:02:11;;;;;;;27.77;15.47;;;-4.40;99.90;;;;;;5062309;28;20500;-58
2022/12/14 06:04:40;;;;;;;27.07;14.90;;;-4.60;99.90;;;;;;5073217;28;20990;-58
2022/12/14 06:07:11;;;;;;;25.77;15.13;;;-4.70;99.90;;;;;;5083658;28;20480;-58
2022/12/14 06:09:39;;;;;;;26.30;15.57;;;-4.70;99.90;;;;;;5073943;28;20462;-57
2022/12/14 06:12:07;;;;;;;25.03;14.30;;;-4.60;99.90;;;;;;5074269;28;20975;-58
2022/12/14 06:14:36;;;;;;;27.33;15.00;;;-4.60;99.90;;;;;;5076781;28;20473;-58
2022/12/14 06:17:04;;;;;;;24.73;13.37;;;-4.70;99.90;;;;;;5086435;28;20527;-57
2022/12/14 06:19:32;;;;;;;24.43;14.10;;;-4.40;99.90;;;;;;5076332;28;20484;-55
2022/12/14 06:22:01;;;;;;;24.93;15.30;;;-4.40;99.90;;;;;;5093147;28;20523;-57
2022/12/14 06:24:31;;;;;;;21.73;13.10;;;-4.20;99.90;;;;;;5073606;28;20469;-58
2022/12/14 06:26:59;;;;;;;24.77;14.97;;;-3.90;99.90;;;;;;5073684;28;20457;-58
2022/12/14 06:29:27;;;;;;;27.33;14.73;;;-4.20;99.90;;;;;;5073406;28;20836;-58
2022/12/14 06:31:56;;;;;;;24.07;14.80;;;-4.40;99.90;;;;;;5072595;28;20818;-58
2022/12/14 06:34:25;;;;;;;25.13;14.67;;;-4.00;99.90;;;;;;5072906;28;20473;-58
2022/12/14 06:36:55;;;;;;;24.87;15.07;;;-3.90;99.90;;;;;;5064072;28;20549;-55
2022/12/14 06:39:23;;;;;;;31.53;18.63;;;-3.60;99.90;;;;;;5092076;28;20495;-56
2022/12/14 06:41:52;;;;;;;30.13;16.60;;;-3.50;99.90;;;;;;5093427;28;20465;-56
2022/12/14 06:44:20;;;;;;;30.37;16.83;;;-3.50;99.90;;;;;;5085526;28;20470;-56
2022/12/14 06:46:48;;;;;;;30.43;18.07;;;-3.40;99.90;;;;;;5078060;28;20468;-56
2022/12/14 06:49:18;;;;;;;29.63;17.83;;;-3.80;99.90;;;;;;5071396;28;20472;-55
2022/12/14 06:51:46;;;;;;;28.63;17.60;;;-4.30;99.90;;;;;;5071156;28;20511;-56
2022/12/14 06:54:15;;;;;;;24.80;14.37;;;-4.60;99.90;;;;;;5066569;28;20474;-56
2022/12/14 06:56:45;;;;;;;29.33;16.20;;;-4.20;99.90;;;;;;5078800;28;20478;-55
2022/12/14 06:59:14;;;;;;;27.70;14.77;;;-4.00;99.90;;;;;;5081628;28;21100;-55
2022/12/14 07:01:43;;;;;;;31.70;19.53;;;-3.70;99.90;;;;;;5079664;28;20481;-58
2022/12/14 07:04:11;;;;;;;34.57;19.90;;;-3.60;99.90;;;;;;5073871;28;20822;-56
2022/12/14 07:06:41;;;;;;;39.17;21.20;;;-4.20;99.90;;;;;;5072903;28;20501;-58
2022/12/14 07:09:13;;;;;;;45.93;24.67;;;-4.10;99.90;;;;;;5077971;28;20456;-58
2022/12/14 07:11:41;;;;;;;44.30;25.07;;;-4.20;99.90;;;;;;5072270;28;20495;-58
2022/12/14 07:14:13;;;;;;;38.47;22.00;;;-4.50;99.90;;;;;;5073222;28;20831;-58
2022/12/14 07:16:42;;;;;;;37.33;21.17;;;-4.70;99.90;;;;;;5077546;28;20525;-58
2022/12/14 07:19:15;;;;;;;34.40;18.10;;;-4.70;99.90;;;;;;5092723;28;20484;-58
2022/12/14 07:21:45;;;;;;;35.50;18.30;;;-4.80;99.90;;;;;;5084962;28;20480;-58
2022/12/14 07:24:13;;;;;;;28.13;18.13;;;-4.90;99.90;;;;;;5074679;28;20483;-58
2022/12/14 07:26:41;;;;;;;30.07;17.03;;;-4.50;99.90;;;;;;5079558;28;21051;-58
2022/12/14 07:29:10;;;;;;;31.03;17.20;;;-4.50;99.90;;;;;;5074988;28;20469;-56
2022/12/14 07:31:39;;;;;;;30.40;17.90;;;-4.30;99.90;;;;;;5083084;28;20486;-58
2022/12/14 07:34:07;;;;;;;32.83;19.77;;;-4.10;99.90;;;;;;5072534;28;20963;-58
2022/12/14 07:36:35;;;;;;;33.97;19.27;;;-3.90;99.90;;;;;;5070624;28;20453;-58
2022/12/14 07:39:04;;;;;;;32.23;17.37;;;-3.80;99.90;;;;;;5052444;28;20485;-58
2022/12/14 07:41:32;;;;;;;27.73;16.27;;;-4.00;99.90;;;;;;5053429;28;20473;-58
2022/12/14 07:44:01;;;;;;;30.47;17.40;;;-4.00;99.90;;;;;;5080744;28;20862;-58
2022/12/14 07:46:30;;;;;;;31.97;19.77;;;-4.00;99.90;;;;;;5092028;28;21025;-56
2022/12/14 07:49:00;;;;;;;36.87;21.07;;;-4.00;99.90;;;;;;5090697;28;20471;-55
2022/12/14 07:51:29;;;;;;;33.77;18.67;;;-3.90;99.90;;;;;;5067780;28;20472;-54
2022/12/14 07:53:59;;;;;;;37.80;20.90;;;-3.80;99.90;;;;;;5064326;28;20465;-55
2022/12/14 07:56:30;;;;;;;29.10;17.33;;;-3.80;99.90;;;;;;5072412;28;20802;-55
2022/12/14 07:59:00;;;;;;;28.80;17.17;;;-4.00;99.90;;;;;;5072145;28;20477;-55
2022/12/14 08:01:30;;;;;;;29.67;17.70;;;-4.00;99.90;;;;;;5068385;28;20512;-55
2022/12/14 08:04:00;;;;;;;29.83;16.90;;;-3.80;99.90;;;;;;5071388;28;20961;-55
2022/12/14 08:06:29;;;;;;;29.13;17.47;;;-3.90;99.90;;;;;;5078824;28;20880;-54
2022/12/14 08:08:57;;;;;;;30.90;16.43;;;-4.00;99.90;;;;;;5071968;28;20462;-55
2022/12/14 08:11:26;;;;;;;37.00;20.00;;;-4.10;99.90;;;;;;5062102;28;20470;-55
2022/12/14 08:13:57;;;;;;;33.00;19.87;;;-4.30;99.90;;;;;;5055133;28;20466;-56
2022/12/14 08:16:25;;;;;;;31.97;18.67;;;-4.50;99.90;;;;;;5056257;28;20469;-57
2022/12/14 08:18:55;;;;;;;26.20;16.53;;;-4.70;99.90;;;;;;5056251;28;20518;-58
2022/12/14 08:21:24;;;;;;;28.13;16.40;;;-4.70;99.90;;;;;;5065791;28;20793;-57
2022/12/14 08:23:53;;;;;;;34.37;19.33;;;-4.30;99.90;;;;;;5076007;28;20461;-58
2022/12/14 08:26:23;;;;;;;30.17;17.40;;;-4.40;99.90;;;;;;5076219;28;20470;-57
2022/12/14 08:28:57;;;;;;;32.40;17.57;;;-4.20;99.90;;;;;;5069403;28;20949;-58
2022/12/14 08:31:26;;;;;;;30.13;17.73;;;-4.00;99.90;;;;;;5075278;28;20480;-57
2022/12/14 08:33:55;;;;;;;31.67;18.30;;;-4.40;99.90;;;;;;5074696;28;20473;-57
2022/12/14 08:36:27;;;;;;;27.80;17.70;;;-4.50;99.90;;;;;;5075558;28;20474;-58
2022/12/14 08:38:57;;;;;;;28.33;15.73;;;-4.50;99.90;;;;;;5058177;28;20471;-58
2022/12/14 08:41:26;;;;;;;31.10;17.97;;;-4.30;99.90;;;;;;5055480;28;20964;-56
2022/12/14 08:43:57;;;;;;;30.40;17.93;;;-4.00;99.90;;;;;;5055683;28;20461;-58
2022/12/14 08:46:27;;;;;;;30.57;18.17;;;-3.80;99.90;;;;;;5055374;28;20473;-55
2022/12/14 08:48:55;;;;;;;28.50;18.03;;;-3.70;99.90;;;;;;5059107;28;20473;-56
2022/12/14 08:51:25;;;;;;;26.97;16.97;;;-3.40;99.90;;;;;;5056697;28;20464;-56
2022/12/14 08:53:54;;;;;;;27.27;17.53;;;-3.50;99.90;;;;;;5055245;28;20481;-55
2022/12/14 08:56:23;;;;;;;28.30;15.97;;;-3.60;99.90;;;;;;5058081;28;20464;-56
2022/12/14 08:58:52;;;;;;;25.00;15.30;;;-3.70;99.90;;;;;;5075167;28;20941;-56
2022/12/14 09:01:24;;;;;;;28.70;18.40;;;-3.80;99.90;;;;;;5074406;28;20522;-54
2022/12/14 09:04:03;;;;;;;27.50;16.77;;;-3.70;99.90;;;;;;5075382;28;20472;-56
2022/12/14 09:06:34;;;;;;;28.40;17.33;;;-3.30;99.90;;;;;;5074910;28;20458;-56
2022/12/14 09:09:02;;;;;;;26.83;17.70;;;-3.30;99.90;;;;;;5069506;28;20482;-55
2022/12/14 09:11:30;;;;;;;30.80;18.47;;;-3.20;99.90;;;;;;5057480;28;20479;-56
2022/12/14 09:13:58;;;;;;;30.70;17.07;;;-3.60;99.90;;;;;;5074940;28;20465;-55
2022/12/14 09:16:28;;;;;;;32.40;18.67;;;-3.60;99.90;;;;;;5074925;28;20472;-55
2022/12/14 09:18:56;;;;;;;33.10;19.00;;;-3.70;99.90;;;;;;5070814;28;20481;-56
2022/12/14 09:21:24;;;;;;;30.13;18.50;;;-3.70;99.90;;;;;;5056558;28;20474;-55
2022/12/14 09:23:52;;;;;;;29.20;18.00;;;-3.50;99.90;;;;;;5072297;28;20481;-55
2022/12/14 09:26:28;;;;;;;30.67;19.93;;;-3.10;99.90;;;;;;5074589;28;20462;-55
2022/12/14 09:28:57;;;;;;;28.53;18.27;;;-3.20;99.90;;;;;;5074961;28;20472;-56
2022/12/14 09:31:27;;;;;;;35.00;20.53;;;-2.80;99.90;;;;;;5071291;28;20479;-55
2022/12/14 09:33:56;;;;;;;31.10;18.13;;;-2.80;99.90;;;;;;5074616;28;20473;-56
2022/12/14 09:36:26;;;;;;;27.70;18.03;;;-2.70;99.90;;;;;;5074696;28;20560;-55
2022/12/14 09:38:56;;;;;;;31.27;18.70;;;-2.90;99.90;;;;;;5075046;28;20469;-56
2022/12/14 09:41:48;;;;;;;34.97;19.70;;;-3.00;99.90;;;;;;5063144;28;21001;-56
2022/12/14 09:44:28;;;;;;;30.37;18.27;;;-2.70;99.90;;;;;;5066696;28;20492;-56
2022/12/14 09:47:03;;;;;;;32.90;19.23;;;-2.10;99.90;;;;;;5077856;28;20832;-56
2022/12/14 09:49:34;;;;;;;29.20;17.37;;;-2.20;99.90;;;;;;5083713;28;20476;-56
2022/12/14 09:52:04;;;;;;;30.77;18.33;;;-2.10;99.90;;;;;;5083947;28;20833;-56
2022/12/14 09:54:37;;;;;;;29.10;18.57;;;-2.10;99.90;;;;;;5083760;28;20468;-56
2022/12/14 09:57:10;;;;;;;27.60;17.73;;;-2.10;99.90;;;;;;5077318;28;20469;-57
2022/12/14 09:59:39;;;;;;;28.67;17.57;;;-2.10;99.90;;;;;;5071987;28;20486;-56
2022/12/14 10:02:29;;;;;;;28.10;16.83;;;-2.10;99.90;;;;;;5077508;28;20538;-56
2022/12/14 10:05:16;;;;;;;25.50;15.90;;;-2.20;99.90;;;;;;5073110;28;20481;-56
2022/12/14 10:07:51;;;;;;;24.53;15.60;;;-2.20;99.90;;;;;;5075162;28;20532;-56
2022/12/14 10:10:25;;;;;;;24.63;14.87;;;-2.20;99.90;;;;;;5082932;28;20468;-57
2022/12/14 10:13:02;;;;;;;24.23;14.83;;;-2.00;99.90;;;;;;5071746;28;20467;-55
2022/12/14 10:15:36;;;;;;;21.93;14.57;;;-1.70;99.90;;;;;;5075543;28;20480;-56
2022/12/14 10:18:24;;;;;;;21.20;13.57;;;-1.50;99.90;;;;;;5080087;28;20871;-57
2022/12/14 10:21:14;;;;;;;23.87;15.33;;;-1.30;99.90;;;;;;5081886;28;20555;-57
2022/12/14 10:23:51;;;;;;;21.50;13.17;;;-1.10;99.90;;;;;;5073078;28;20473;-57
2022/12/14 10:26:22;;;;;;;24.10;16.00;;;-1.00;99.90;;;;;;5080808;28;20859;-57
2022/12/14 10:28:56;;;;;;;22.67;15.07;;;-1.10;99.90;;;;;;5080671;28;20461;-57
2022/12/14 10:31:33;;;;;;;22.80;15.00;;;-1.00;99.90;;;;;;5074225;28;20940;-56
2022/12/14 10:34:16;;;;;;;19.83;13.43;;;-1.10;99.90;;;;;;5079570;28;20477;-57
2022/12/14 10:36:51;;;;;;;19.83;13.67;;;-1.00;99.90;;;;;;5079939;28;20469;-57
2022/12/14 10:39:27;;;;;;;21.50;13.17;;;-0.80;99.90;;;;;;5079470;28;20503;-55
2022/12/14 10:42:01;;;;;;;22.40;14.40;;;-0.80;99.90;;;;;;5078458;28;20492;-56
2022/12/14 10:44:39;;;;;;;19.07;13.13;;;-0.70;99.90;;;;;;5079039;28;21178;-57
2022/12/14 10:47:14;;;;;;;17.43;11.70;;;-0.70;99.90;;;;;;5076433;28;20462;-56
2022/12/14 10:49:50;;;;;;;17.67;10.97;;;-0.60;99.90;;;;;;5080443;28;20477;-57
2022/12/14 10:52:21;;;;;;;19.10;12.23;;;-0.50;99.90;;;;;;5077482;28;21124;-57
2022/12/14 10:54:52;;;;;;;17.37;11.07;;;-0.50;99.90;;;;;;5083847;28;20481;-57
2022/12/14 10:57:23;;;;;;;16.80;10.63;;;-0.50;99.90;;;;;;5077244;28;20990;-57
2022/12/14 10:59:52;;;;;;;14.80;9.97;;;-0.40;99.90;;;;;;5073358;28;20457;-57
2022/12/14 11:02:39;;;;;;;17.67;11.33;;;-0.30;99.90;;;;;;5066950;28;20856;-57
2022/12/14 11:05:22;;;;;;;16.40;11.37;;;-0.20;99.90;;;;;;5070777;28;20457;-56
2022/12/14 11:07:50;;;;;;;16.33;11.43;;;-0.10;99.90;;;;;;5072288;28;20473;-57
2022/12/14 11:10:21;;;;;;;18.20;10.97;;;0.10;99.90;;;;;;5067564;28;20563;-57
2022/12/14 11:12:58;;;;;;;18.67;12.23;;;0.20;99.90;;;;;;5067602;28;20500;-57
2022/12/14 11:15:31;;;;;;;17.83;11.47;;;0.30;99.90;;;;;;5067499;28;20842;-57
2022/12/14 11:18:05;;;;;;;16.57;11.83;;;0.30;99.90;;;;;;5067825;28;20469;-57
2022/12/14 11:20:35;;;;;;;18.20;11.20;;;0.30;99.90;;;;;;5069121;28;20489;-57
2022/12/14 11:23:20;;;;;;;16.83;12.27;;;0.40;99.90;;;;;;5067723;28;20469;-57
2022/12/14 11:25:50;;;;;;;18.03;12.33;;;0.60;99.90;;;;;;5068107;28;20466;-57
2022/12/14 11:28:28;;;;;;;19.37;12.43;;;0.70;99.90;;;;;;5068122;28;20978;-58
2022/12/14 11:31:05;;;;;;;17.03;11.77;;;0.70;99.90;;;;;;5072644;28;20472;-57
2022/12/14 11:33:37;;;;;;;17.77;11.97;;;0.80;99.90;;;;;;5078468;28;20470;-57
2022/12/14 11:36:08;;;;;;;16.83;11.70;;;0.70;99.90;;;;;;5073127;28;20461;-58
2022/12/14 11:38:37;;;;;;;16.73;11.43;;;0.70;99.90;;;;;;5075735;28;20572;-57
2022/12/14 11:41:06;;;;;;;16.43;11.77;;;0.60;99.90;;;;;;5074338;28;20478;-58
2022/12/14 11:43:39;;;;;;;15.63;11.03;;;0.60;99.90;;;;;;5073991;28;20485;-58
2022/12/14 11:46:07;;;;;;;17.77;12.03;;;0.60;99.90;;;;;;5074631;28;20968;-57
2022/12/14 11:48:38;;;;;;;16.50;12.20;;;0.60;99.90;;;;;;5077267;28;20449;-57
2022/12/14 11:51:11;;;;;;;16.23;10.80;;;0.60;99.90;;;;;;5079931;28;20892;-58
2022/12/14 11:53:40;;;;;;;16.07;11.73;;;0.70;99.90;;;;;;5060032;28;20981;-57
2022/12/14 11:56:15;;;;;;;17.87;12.00;;;0.70;99.90;;;;;;5057663;28;20462;-58
2022/12/14 11:58:51;;;;;;;17.13;11.43;;;0.80;99.90;;;;;;5074900;28;20864;-57
2022/12/14 12:01:25;;;;;;;18.23;11.67;;;0.70;99.90;;;;;;5067139;28;20499;-56
2022/12/14 12:03:57;;;;;;;16.80;11.23;;;0.70;99.90;;;;;;5077669;28;20541;-57
2022/12/14 12:06:29;;;;;;;16.17;11.63;;;0.70;99.90;;;;;;5078276;28;20827;-56
2022/12/14 12:08:59;;;;;;;16.97;11.57;;;0.80;99.90;;;;;;5078113;28;20457;-58
2022/12/14 12:11:30;;;;;;;14.57;11.07;;;0.80;99.90;;;;;;5077417;28;20477;-58
2022/12/14 12:14:01;;;;;;;16.27;10.60;;;0.80;99.90;;;;;;5077562;28;20473;-57
2022/12/14 12:16:31;;;;;;;17.23;11.63;;;0.80;99.90;;;;;;5077287;28;20468;-57
2022/12/14 12:19:06;;;;;;;17.40;11.10;;;0.80;99.90;;;;;;5077872;28;20863;-58
2022/12/14 12:21:43;;;;;;;17.17;9.80;;;0.80;99.90;;;;;;5073199;28;21018;-56
2022/12/14 12:24:18;;;;;;;16.13;10.80;;;0.80;99.90;;;;;;5082141;28;20519;-58
2022/12/14 12:26:51;;;;;;;16.53;10.73;;;0.70;99.90;;;;;;5088867;28;20467;-56
2022/12/14 12:29:27;;;;;;;17.73;10.97;;;0.70;99.90;;;;;;5088026;28;20847;-58
2022/12/14 12:32:01;;;;;;;13.33;9.87;;;0.80;99.90;;;;;;5083722;28;20507;-58
2022/12/14 12:34:34;;;;;;;14.13;9.47;;;0.70;99.90;;;;;;5080538;28;20457;-57
2022/12/14 12:37:12;;;;;;;15.83;10.23;;;0.70;99.90;;;;;;5085794;28;20555;-57
2022/12/14 12:40:01;;;;;;;13.07;8.90;;;0.60;99.90;;;;;;5083161;28;20525;-57
2022/12/14 12:42:39;;;;;;;12.93;9.10;;;0.50;99.90;;;;;;5080353;28;20494;-58
2022/12/14 12:45:16;;;;;;;13.00;9.40;;;0.50;99.90;;;;;;5079683;28;20477;-58
2022/12/14 12:47:49;;;;;;;14.80;9.43;;;0.40;99.90;;;;;;5085935;28;20538;-57
2022/12/14 12:50:20;;;;;;;14.97;9.70;;;0.40;99.90;;;;;;5079866;28;20527;-57
2022/12/14 12:52:57;;;;;;;14.20;9.43;;;0.40;99.90;;;;;;5074107;28;20456;-57
2022/12/14 12:55:35;;;;;;;15.30;9.65;;;0.40;99.90;;;;;;5084937;28;20766;-62
2022/12/14 12:58:08;;;;;;;13.70;10.00;;;0.40;99.90;;;;;;5084216;28;20223;-60
2022/12/14 13:00:40;;;;;;;16.27;10.30;;;0.30;99.90;;;;;;5078418;28;20465;-61
2022/12/14 13:03:12;;;;;;;14.50;10.27;;;0.30;99.90;;;;;;5079133;28;20486;-61
2022/12/14 13:05:42;;;;;;;14.03;9.40;;;0.20;99.90;;;;;;5078931;28;20480;-62
2022/12/14 13:08:23;;;;;;;13.50;9.10;;;0.10;99.90;;;;;;5075301;28;20460;-61